La Belle — WDC2767 — position and weather

sailwx.info

Track history (hours):
 
Tides and Currents Weather Stations Pressure Air Temp Water Temp Dewpoint Dewpoint Depression Visibility Wind Speed Wind Dir Waves Ship Positions

La Belle

Owner: Double G Marine, LLC, Houma, LA. More information available from US FCC via Universal Licensing System and Coast Guard Vessel Documentation Center.

Last reported at 2017-Nov-17 15:02 UTC. Time now 2017-Nov-20 23:11 UTC.
Position N 29°34' W 090°43'.

Length 20 m.

Type: Towing. MMSI: 366997450.

Date/timePositionNaut miles runAvg speedWind from/ knotsBaromVisibWave heightAir tempDewpointWater temp
2017-Nov-17 15:02N 29°34' W 090°43'0 0.2
2017-Nov-17 15:00N 29°34' W 090°43'0 0.0
2017-Nov-17 14:30N 29°34' W 090°43'0 0.0
2017-Nov-16 22:06N 29°34' W 090°43'0 0.0
2017-Nov-16 22:01N 29°34' W 090°43'0 0.0
2017-Nov-16 21:30N 29°34' W 090°43'0 0.0
2017-Nov-16 21:01N 29°34' W 090°43'0 0.0
2017-Nov-16 20:30N 29°34' W 090°43'0 0.0
2017-Nov-16 20:00N 29°34' W 090°43'0 0.0
2017-Nov-16 16:44N 29°34' W 090°43'0 0.0
2017-Nov-16 16:30N 29°34' W 090°43'0 0.0
2017-Nov-16 14:04N 29°34' W 090°43'0 0.0
2017-Nov-16 14:00N 29°34' W 090°43'0 0.1
2017-Nov-16 13:30N 29°34' W 090°43'0 0.0
2017-Nov-16 13:00N 29°34' W 090°43'0 0.0
2017-Nov-16 12:31N 29°34' W 090°43'0 0.0
2017-Nov-16 12:00N 29°34' W 090°43'0 0.0
2017-Nov-16 11:30N 29°34' W 090°43'0 0.0
2017-Nov-16 11:01N 29°34' W 090°43'0 0.0
2017-Nov-16 10:30N 29°34' W 090°43'0 0.0
2017-Nov-16 10:00N 29°34' W 090°43'0 0.0
2017-Nov-16 09:30N 29°34' W 090°43'0 0.0
2017-Nov-16 09:00N 29°34' W 090°43'0 0.0
2017-Nov-16 08:30N 29°34' W 090°43'0 0.0
2017-Nov-16 08:01N 29°34' W 090°43'0 0.0
2017-Nov-16 07:30N 29°34' W 090°43'0 0.0
2017-Nov-16 07:00N 29°34' W 090°43'0 0.0
2017-Nov-16 06:30N 29°34' W 090°43'0 0.0
2017-Nov-16 06:00N 29°34' W 090°43'0 0.0
2017-Nov-16 05:31N 29°34' W 090°43'0 0.0
2017-Nov-16 05:01N 29°34' W 090°43'0 0.0
2017-Nov-16 04:30N 29°34' W 090°43'0 0.0
2017-Nov-16 04:00N 29°34' W 090°43'0 0.0
2017-Nov-16 03:30N 29°34' W 090°43'0 0.0
2017-Nov-16 03:00N 29°34' W 090°43'0 0.0
2017-Nov-16 02:30N 29°34' W 090°43'0 0.0
2017-Nov-16 02:00N 29°34' W 090°43'0 0.0
2017-Nov-16 01:30N 29°34' W 090°43'0 0.0
2017-Nov-16 01:00N 29°34' W 090°43'0 0.0
2017-Nov-16 00:31N 29°34' W 090°43'0 0.0
2017-Nov-16 00:00N 29°34' W 090°43'0 0.0
2017-Nov-15 23:30N 29°34' W 090°43'0 0.0
2017-Nov-15 23:00N 29°34' W 090°43'0 0.0
2017-Nov-15 22:30N 29°34' W 090°43'0 0.0
2017-Nov-15 22:00N 29°34' W 090°43'0 0.0
2017-Nov-15 21:31N 29°34' W 090°43'0 0.0
2017-Nov-15 21:00N 29°34' W 090°43'0 0.0
2017-Nov-15 20:30N 29°34' W 090°43'0 0.0
2017-Nov-15 20:00N 29°34' W 090°43'0 0.0
2017-Nov-15 19:31N 29°34' W 090°43'0 0.0
2017-Nov-15 19:01N 29°34' W 090°43'0 0.7
2017-Nov-15 18:31N 29°34' W 090°43'0 0.1
2017-Nov-15 18:01N 29°34' W 090°43'2 4.4
2017-Nov-15 17:30N 29°33' W 090°45'3 6.5
2017-Nov-15 17:00N 29°32' W 090°49'60 5.1
2017-Nov-15 05:12N 29°51' W 091°55'1 7.1
2017-Nov-15 05:00N 29°51' W 091°56'3 7.0
2017-Nov-15 04:30N 29°50' W 092°00'4 7.2
2017-Nov-15 04:00N 29°48' W 092°04'4 7.1
2017-Nov-15 03:30N 29°47' W 092°08'3 6.3
2017-Nov-15 03:00N 29°47' W 092°12'1 1.3
2017-Nov-15 02:31N 29°47' W 092°12'1 1.1
2017-Nov-15 02:00N 29°47' W 092°13'0 0.0
2017-Nov-15 01:30N 29°47' W 092°13'0 0.0
2017-Nov-15 01:01N 29°47' W 092°13'3 5.3
2017-Nov-15 00:31N 29°48' W 092°16'3 6.6
2017-Nov-15 00:01N 29°50' W 092°19'4 6.4
2017-Nov-14 23:23N 29°52' W 092°23'37 6.7
2017-Nov-14 17:54N 29°56' W 093°05'3 6.8
2017-Nov-14 17:29N 29°56' W 093°08'3 6.4
2017-Nov-14 17:01N 29°58' W 093°11'3 6.8
2017-Nov-14 16:30N 30°00' W 093°14'3 5.4
2017-Nov-14 16:01N 30°02' W 093°16'3 6.0
2017-Nov-14 15:30N 30°05' W 093°17'1 2.0
2017-Nov-14 15:00N 30°06' W 093°18'0 0.0
2017-Nov-14 14:30N 30°06' W 093°18'0 0.0
2017-Nov-14 13:59N 30°06' W 093°18'0 0.0
2017-Nov-14 13:30N 30°06' W 093°18'2 4.8
2017-Nov-14 13:00N 30°04' W 093°20'1 2.4
2017-Nov-14 12:30N 30°04' W 093°21'  
2017-Nov-09 02:42N 29°52' W 093°21'1 5.1
2017-Nov-09 02:27N 29°53' W 093°21'3 6.1
2017-Nov-09 02:00N 29°56' W 093°20'3 6.8
2017-Nov-09 01:30N 29°59' W 093°20'4 7.4
2017-Nov-09 01:00N 30°03' W 093°20'4 7.4
2017-Nov-09 00:30N 30°06' W 093°19'4 7.2
2017-Nov-09 00:00N 30°03' W 093°16'3 6.8
2017-Nov-08 23:30N 30°01' W 093°14'4 7.4
2017-Nov-08 23:00N 29°58' W 093°11'3 6.7
2017-Nov-08 22:30N 29°56' W 093°08'40 6.6
2017-Nov-08 16:24N 29°51' W 092°21'3 6.8
2017-Nov-08 16:00N 29°50' W 092°18'3 6.5
2017-Nov-08 15:30N 29°48' W 092°15'3 7.0
2017-Nov-08 15:00N 29°47' W 092°12'3 6.5
2017-Nov-08 14:30N 29°47' W 092°08'4 7.5
2017-Nov-08 14:00N 29°48' W 092°04'3 6.9
2017-Nov-08 13:30N 29°50' W 092°00'63 6.1
2017-Nov-08 03:07N 29°32' W 090°50'1 7.0
2017-Nov-08 02:58N 29°32' W 090°49'3 6.4
2017-Nov-08 02:30N 29°33' W 090°46'3 5.5
2017-Nov-08 02:00N 29°34' W 090°43'3 6.6
2017-Nov-08 01:30N 29°31' W 090°43'4 7.0
2017-Nov-08 01:00N 29°27' W 090°43'3 0.4
2017-Nov-07 17:50N 29°25' W 090°44'2 5.7
2017-Nov-07 17:29N 29°26' W 090°43'3 5.7
2017-Nov-07 17:00N 29°29' W 090°43'3 6.0
2017-Nov-07 16:31N 29°32' W 090°42'2 3.6
2017-Nov-07 16:00N 29°34' W 090°43'1 1.3
2017-Nov-07 15:30N 29°34' W 090°44'  
Track history (hours):
 
Tides and Currents Weather Stations Pressure Air Temp Water Temp Dewpoint Dewpoint Depression Visibility Wind Speed Wind Dir Waves Ship Positions

La Belle

Owner: Double G Marine, LLC, Houma, LA. More information available from US FCC via Universal Licensing System and Coast Guard Vessel Documentation Center.

Last reported at 2017-Nov-17 15:02 UTC. Time now 2017-Nov-20 23:11 UTC.
Position N 29°34' W 090°43'.

Length 20 m.

Type: Towing. MMSI: 366997450.

Date/timePositionNaut miles runAvg speedWind from/ knotsBaromVisibWave heightAir tempDewpointWater temp
2017-Nov-17 15:02N 29°34' W 090°43'0 0.2
2017-Nov-17 15:00N 29°34' W 090°43'0 0.0
2017-Nov-17 14:30N 29°34' W 090°43'0 0.0
2017-Nov-16 22:06N 29°34' W 090°43'0 0.0
2017-Nov-16 22:01N 29°34' W 090°43'0 0.0
2017-Nov-16 21:30N 29°34' W 090°43'0 0.0
2017-Nov-16 21:01N 29°34' W 090°43'0 0.0
2017-Nov-16 20:30N 29°34' W 090°43'0 0.0
2017-Nov-16 20:00N 29°34' W 090°43'0 0.0
2017-Nov-16 16:44N 29°34' W 090°43'0 0.0
2017-Nov-16 16:30N 29°34' W 090°43'0 0.0
2017-Nov-16 14:04N 29°34' W 090°43'0 0.0
2017-Nov-16 14:00N 29°34' W 090°43'0 0.1
2017-Nov-16 13:30N 29°34' W 090°43'0 0.0
2017-Nov-16 13:00N 29°34' W 090°43'0 0.0
2017-Nov-16 12:31N 29°34' W 090°43'0 0.0
2017-Nov-16 12:00N 29°34' W 090°43'0 0.0
2017-Nov-16 11:30N 29°34' W 090°43'0 0.0
2017-Nov-16 11:01N 29°34' W 090°43'0 0.0
2017-Nov-16 10:30N 29°34' W 090°43'0 0.0
2017-Nov-16 10:00N 29°34' W 090°43'0 0.0
2017-Nov-16 09:30N 29°34' W 090°43'0 0.0
2017-Nov-16 09:00N 29°34' W 090°43'0 0.0
2017-Nov-16 08:30N 29°34' W 090°43'0 0.0
2017-Nov-16 08:01N 29°34' W 090°43'0 0.0
2017-Nov-16 07:30N 29°34' W 090°43'0 0.0
2017-Nov-16 07:00N 29°34' W 090°43'0 0.0
2017-Nov-16 06:30N 29°34' W 090°43'0 0.0
2017-Nov-16 06:00N 29°34' W 090°43'0 0.0
2017-Nov-16 05:31N 29°34' W 090°43'0 0.0
2017-Nov-16 05:01N 29°34' W 090°43'0 0.0
2017-Nov-16 04:30N 29°34' W 090°43'0 0.0
2017-Nov-16 04:00N 29°34' W 090°43'0 0.0
2017-Nov-16 03:30N 29°34' W 090°43'0 0.0
2017-Nov-16 03:00N 29°34' W 090°43'0 0.0
2017-Nov-16 02:30N 29°34' W 090°43'0 0.0
2017-Nov-16 02:00N 29°34' W 090°43'0 0.0
2017-Nov-16 01:30N 29°34' W 090°43'0 0.0
2017-Nov-16 01:00N 29°34' W 090°43'0 0.0
2017-Nov-16 00:31N 29°34' W 090°43'0 0.0
2017-Nov-16 00:00N 29°34' W 090°43'0 0.0
2017-Nov-15 23:30N 29°34' W 090°43'0 0.0
2017-Nov-15 23:00N 29°34' W 090°43'0 0.0
2017-Nov-15 22:30N 29°34' W 090°43'0 0.0
2017-Nov-15 22:00N 29°34' W 090°43'0 0.0
2017-Nov-15 21:31N 29°34' W 090°43'0 0.0
2017-Nov-15 21:00N 29°34' W 090°43'0 0.0
2017-Nov-15 20:30N 29°34' W 090°43'0 0.0
2017-Nov-15 20:00N 29°34' W 090°43'0 0.0
2017-Nov-15 19:31N 29°34' W 090°43'0 0.0
2017-Nov-15 19:01N 29°34' W 090°43'0 0.7
2017-Nov-15 18:31N 29°34' W 090°43'0 0.1
2017-Nov-15 18:01N 29°34' W 090°43'2 4.4
2017-Nov-15 17:30N 29°33' W 090°45'3 6.5
2017-Nov-15 17:00N 29°32' W 090°49'60 5.1
2017-Nov-15 05:12N 29°51' W 091°55'1 7.1
2017-Nov-15 05:00N 29°51' W 091°56'3 7.0
2017-Nov-15 04:30N 29°50' W 092°00'4 7.2
2017-Nov-15 04:00N 29°48' W 092°04'4 7.1
2017-Nov-15 03:30N 29°47' W 092°08'3 6.3
2017-Nov-15 03:00N 29°47' W 092°12'1 1.3
2017-Nov-15 02:31N 29°47' W 092°12'1 1.1
2017-Nov-15 02:00N 29°47' W 092°13'0 0.0
2017-Nov-15 01:30N 29°47' W 092°13'0 0.0
2017-Nov-15 01:01N 29°47' W 092°13'3 5.3
2017-Nov-15 00:31N 29°48' W 092°16'3 6.6
2017-Nov-15 00:01N 29°50' W 092°19'4 6.4
2017-Nov-14 23:23N 29°52' W 092°23'37 6.7
2017-Nov-14 17:54N 29°56' W 093°05'3 6.8
2017-Nov-14 17:29N 29°56' W 093°08'3 6.4
2017-Nov-14 17:01N 29°58' W 093°11'3 6.8
2017-Nov-14 16:30N 30°00' W 093°14'3 5.4
2017-Nov-14 16:01N 30°02' W 093°16'3 6.0
2017-Nov-14 15:30N 30°05' W 093°17'1 2.0
2017-Nov-14 15:00N 30°06' W 093°18'0 0.0
2017-Nov-14 14:30N 30°06' W 093°18'0 0.0
2017-Nov-14 13:59N 30°06' W 093°18'0 0.0
2017-Nov-14 13:30N 30°06' W 093°18'2 4.8
2017-Nov-14 13:00N 30°04' W 093°20'1 2.4
2017-Nov-14 12:30N 30°04' W 093°21'  
2017-Nov-09 02:42N 29°52' W 093°21'1 5.1
2017-Nov-09 02:27N 29°53' W 093°21'3 6.1
2017-Nov-09 02:00N 29°56' W 093°20'3 6.8
2017-Nov-09 01:30N 29°59' W 093°20'4 7.4
2017-Nov-09 01:00N 30°03' W 093°20'4 7.4
2017-Nov-09 00:30N 30°06' W 093°19'4 7.2
2017-Nov-09 00:00N 30°03' W 093°16'3 6.8
2017-Nov-08 23:30N 30°01' W 093°14'4 7.4
2017-Nov-08 23:00N 29°58' W 093°11'3 6.7
2017-Nov-08 22:30N 29°56' W 093°08'40 6.6
2017-Nov-08 16:24N 29°51' W 092°21'3 6.8
2017-Nov-08 16:00N 29°50' W 092°18'3 6.5
2017-Nov-08 15:30N 29°48' W 092°15'3 7.0
2017-Nov-08 15:00N 29°47' W 092°12'3 6.5
2017-Nov-08 14:30N 29°47' W 092°08'4 7.5
2017-Nov-08 14:00N 29°48' W 092°04'3 6.9
2017-Nov-08 13:30N 29°50' W 092°00'63 6.1
2017-Nov-08 03:07N 29°32' W 090°50'1 7.0
2017-Nov-08 02:58N 29°32' W 090°49'3 6.4
2017-Nov-08 02:30N 29°33' W 090°46'3 5.5
2017-Nov-08 02:00N 29°34' W 090°43'3 6.6
2017-Nov-08 01:30N 29°31' W 090°43'4 7.0
2017-Nov-08 01:00N 29°27' W 090°43'3 0.4
2017-Nov-07 17:50N 29°25' W 090°44'2 5.7
2017-Nov-07 17:29N 29°26' W 090°43'3 5.7
2017-Nov-07 17:00N 29°29' W 090°43'3 6.0
2017-Nov-07 16:31N 29°32' W 090°42'2 3.6
2017-Nov-07 16:00N 29°34' W 090°43'1 1.3
2017-Nov-07 15:30N 29°34' W 090°44'  

Dump ship's entire track history